Map

Track Data

SID SEASON NUMBER BASIN SUBBASIN NAME ISO_TIME NATURE LAT LON WMO_WIND WMO_PRES WMO_AGENCY TRACK_TYPE DIST2LAND LANDFALL IFLAG USA_AGENCY USA_ATCF_ID USA_LAT USA_LON USA_RECORD USA_STATUS USA_WIND USA_PRES USA_SSHS USA_R34_NE USA_R34_SE USA_R34_SW USA_R34_NW USA_R50_NE USA_R50_SE USA_R50_SW USA_R50_NW USA_R64_NE USA_R64_SE USA_R64_SW USA_R64_NW USA_POCI USA_ROCI USA_RMW USA_EYE TOKYO_LAT TOKYO_LON TOKYO_GRADE TOKYO_WIND TOKYO_PRES TOKYO_R50_DIR TOKYO_R50_LONG TOKYO_R50_SHORT TOKYO_R30_DIR TOKYO_R30_LONG TOKYO_R30_SHORT TOKYO_LAND CMA_LAT CMA_LON CMA_CAT CMA_WIND CMA_PRES HKO_LAT HKO_LON HKO_CAT HKO_WIND HKO_PRES NEWDELHI_LAT NEWDELHI_LON NEWDELHI_GRADE NEWDELHI_WIND NEWDELHI_PRES NEWDELHI_CI NEWDELHI_DP NEWDELHI_POCI REUNION_LAT REUNION_LON REUNION_TYPE REUNION_WIND REUNION_PRES REUNION_TNUM REUNION_CI REUNION_RMW REUNION_R34_NE REUNION_R34_SE REUNION_R34_SW REUNION_R34_NW REUNION_R50_NE REUNION_R50_SE REUNION_R50_SW REUNION_R50_NW REUNION_R64_NE REUNION_R64_SE REUNION_R64_SW REUNION_R64_NW BOM_LAT BOM_LON BOM_TYPE BOM_WIND BOM_PRES BOM_TNUM BOM_CI BOM_RMW BOM_R34_NE BOM_R34_SE BOM_R34_SW BOM_R34_NW BOM_R50_NE BOM_R50_SE BOM_R50_SW BOM_R50_NW BOM_R64_NE BOM_R64_SE BOM_R64_SW BOM_R64_NW BOM_ROCI BOM_POCI BOM_EYE BOM_POS_METHOD BOM_PRES_METHOD NADI_LAT NADI_LON NADI_CAT NADI_WIND NADI_PRES WELLINGTON_LAT WELLINGTON_LON WELLINGTON_WIND WELLINGTON_PRES DS824_LAT DS824_LON DS824_STAGE DS824_WIND DS824_PRES TD9636_LAT TD9636_LON TD9636_STAGE TD9636_WIND TD9636_PRES TD9635_LAT TD9635_LON TD9635_WIND TD9635_PRES TD9635_ROCI NEUMANN_LAT NEUMANN_LON NEUMANN_CLASS NEUMANN_WIND NEUMANN_PRES MLC_LAT MLC_LON MLC_CLASS MLC_WIND MLC_PRES USA_GUST BOM_GUST BOM_GUST_PER REUNION_GUST REUNION_GUST_PER USA_SEAHGT USA_SEARAD_NE USA_SEARAD_SE USA_SEARAD_SW USA_SEARAD_NW STORM_SPEED STORM_DIR
1931231N19138 1931 30 WP MM NOT_NAMED 1931-08-19 10:00:00 NR 18.6000 138.400 main 1556 1542 __________O___ -1 18.6000 138.400 7 6 289
1931231N19138 1931 30 WP MM NOT_NAMED 1931-08-19 12:00:00 NR 18.6634 138.205 main 1542 1514 __________P___ -1 18.6634 138.205 7 6 289
1931231N19138 1931 30 WP MM NOT_NAMED 1931-08-19 15:00:00 NR 18.7596 137.897 main 1519 1491 __________P___ -1 18.7596 137.897 7 6 288
1931231N19138 1931 30 WP MM NOT_NAMED 1931-08-19 18:00:00 NR 18.8590 137.553 main 1497 1460 __________P___ -1 18.8590 137.553 7 7 286
1931231N19138 1931 30 WP MM NOT_NAMED 1931-08-19 21:00:00 NR 18.9637 137.151 main 1465 1447 __________P___ -1 18.9637 137.151 7 8 285
1931231N19138 1931 30 WP MM NOT_NAMED 1931-08-19 22:00:00 NR 19.0000 137.000 main 1447 1425 __________O___ -1 19.0000 137.000 7 9 284
1931231N19138 1931 30 WP MM NOT_NAMED 1931-08-20 00:00:00 NR 19.0752 136.671 main 1425 1378 __________P___ -1 19.0752 136.671 7 10 283
1931231N19138 1931 30 WP MM NOT_NAMED 1931-08-20 03:00:00 NR 19.1940 136.120 main 1378 1327 __________P___ -1 19.1940 136.120 7 11 283
1931231N19138 1931 30 WP MM NOT_NAMED 1931-08-20 06:00:00 NR 19.3201 135.523 main 1327 1276 __________P___ -1 19.3201 135.523 7 12 283
1931231N19138 1931 30 WP MM NOT_NAMED 1931-08-20 09:00:00 NR 19.4537 134.906 main 1281 1263 __________P___ -1 19.4537 134.906 7 12 283
1931231N19138 1931 30 WP MM NOT_NAMED 1931-08-20 10:00:00 NR 19.5000 134.700 main 1263 1231 __________O___ -1 19.5000 134.700 7 12 283
1931231N19138 1931 30 WP MM NOT_NAMED 1931-08-20 12:00:00 NR 19.5893 134.279 main 1231 1174 __________P___ -1 19.5893 134.279 7 12 283
1931231N19138 1931 30 WP MM NOT_NAMED 1931-08-20 15:00:00 NR 19.7294 133.642 main 1174 1134 __________P___ -1 19.7294 133.642 7 12 284
1931231N19138 1931 30 WP MM NOT_NAMED 1931-08-20 18:00:00 NR 19.8793 133.026 main 1134 1085 __________P___ -1 19.8793 133.026 7 11 286
1931231N19138 1931 30 WP MM NOT_NAMED 1931-08-20 21:00:00 NR 20.0422 132.468 main 1085 1066 __________P___ -1 20.0422 132.468 7 11 288
1931231N19138 1931 30 WP MM NOT_NAMED 1931-08-20 22:00:00 NR 20.1000 132.300 main 1066 1037 __________O___ -1 20.1000 132.300 4 10 292
1931231N19138 1931 30 WP MM NOT_NAMED 1931-08-21 00:00:00 NR 20.2212 131.999 main 1037 1000 __________P___ -1 20.2212 131.999 4 9 296
1931231N19138 1931 30 WP MM NOT_NAMED 1931-08-21 03:00:00 NR 20.4163 131.610 main 1000 974 __________P___ -1 20.4163 131.610 4 8 301
1931231N19138 1931 30 WP MM NOT_NAMED 1931-08-21 06:00:00 NR 20.6216 131.281 main 974 949 __________P___ -1 20.6216 131.281 4 7 306
1931231N19138 1931 30 WP MM NOT_NAMED 1931-08-21 09:00:00 NR 20.8307 130.991 main 949 942 __________P___ -1 20.8307 130.991 4 7 308
1931231N19138 1931 30 WP MM NOT_NAMED 1931-08-21 10:00:00 NR 20.9000 130.900 main 942 925 __________O___ -1 20.9000 130.900 4 7 305
1931231N19138 1931 30 WP MM NOT_NAMED 1931-08-21 12:00:00 NR 21.0201 130.700 main 925 903 __________P___ -1 21.0201 130.700 4 6 304
1931231N19138 1931 30 WP MM NOT_NAMED 1931-08-21 15:00:00 NR 21.2000 130.424 main 903 887 __________P___ -1 21.2000 130.424 4 6 308
1931231N19138 1931 30 WP MM NOT_NAMED 1931-08-21 18:00:00 NR 21.3937 130.180 main 891 876 __________P___ -1 21.3937 130.180 4 6 314
1931231N19138 1931 30 WP MM NOT_NAMED 1931-08-21 21:00:00 NR 21.6165 129.965 main 880 870 __________P___ -1 21.6165 129.965 4 6 320
1931231N19138 1931 30 WP MM NOT_NAMED 1931-08-21 22:00:00 NR 21.7000 129.900 main 875 857 __________O___ -1 21.7000 129.900 4 6 326
1931231N19138 1931 30 WP MM NOT_NAMED 1931-08-22 00:00:00 NR 21.8828 129.772 main 857 826 __________P___ -1 21.8828 129.772 4 7 331
1931231N19138 1931 30 WP MM NOT_NAMED 1931-08-22 03:00:00 NR 22.1884 129.605 main 826 806 __________P___ -1 22.1884 129.605 4 7 336
1931231N19138 1931 30 WP MM NOT_NAMED 1931-08-22 06:00:00 NR 22.5236 129.462 main 806 773 __________P___ -1 22.5236 129.462 4 7 340
1931231N19138 1931 30 WP MM NOT_NAMED 1931-08-22 09:00:00 NR 22.8788 129.338 main 773 771 __________P___ -1 22.8788 129.338 4 8 343
1931231N19138 1931 30 WP MM NOT_NAMED 1931-08-22 10:00:00 NR 23.0000 129.300 main 771 753 __________O___ -1 23.0000 129.300 4 8 343
1931231N19138 1931 30 WP MM NOT_NAMED 1931-08-22 12:00:00 NR 23.2595 129.217 main 753 733 __________P___ -1 23.2595 129.217 4 8 345
1931231N19138 1931 30 WP MM NOT_NAMED 1931-08-22 15:00:00 NR 23.6619 129.104 main 733 714 __________P___ -1 23.6619 129.104 4 8 346
1931231N19138 1931 30 WP MM NOT_NAMED 1931-08-22 18:00:00 NR 24.0523 129.007 main 714 699 __________P___ -1 24.0523 129.007 4 8 348
1931231N19138 1931 30 WP MM NOT_NAMED 1931-08-22 21:00:00 NR 24.3994 128.924 main 699 698 __________P___ -1 24.3994 128.924 4 7 348
1931231N19138 1931 30 WP MM NOT_NAMED 1931-08-22 22:00:00 NR 24.5000 128.900 main 698 696 __________O___ -1 24.5000 128.900 4 5 346
1931231N19138 1931 30 WP MM NOT_NAMED 1931-08-23 00:00:00 NR 24.6649 128.855 main 696 685 __________P___ -1 24.6649 128.855 4 5 346
1931231N19138 1931 30 WP MM NOT_NAMED 1931-08-23 03:00:00 NR 24.8619 128.800 main 685 684 __________P___ -1 24.8619 128.800 4 4 345
1931231N19138 1931 30 WP MM NOT_NAMED 1931-08-23 06:00:00 NR 25.0180 128.755 main 684 674 __________P___ -1 25.0180 128.755 4 3 345
1931231N19138 1931 30 WP MM NOT_NAMED 1931-08-23 09:00:00 NR 25.1548 128.714 main 674 674 __________P___ -1 25.1548 128.714 4 3 344
1931231N19138 1931 30 WP MM NOT_NAMED 1931-08-23 10:00:00 NR 25.2000 128.700 main 674 665 __________O___ -1 25.2000 128.700 4 3 346
1931231N19138 1931 30 WP MM NOT_NAMED 1931-08-23 12:00:00 NR 25.3083 128.667 main 665 647 __________P___ -1 25.3083 128.667 4 3 343
1931231N19138 1931 30 WP MM NOT_NAMED 1931-08-23 15:00:00 NR 25.4646 128.617 main 647 636 __________P___ -1 25.4646 128.617 4 3 344
1931231N19138 1931 30 WP MM NOT_NAMED 1931-08-23 18:00:00 NR 25.6133 128.567 main 636 618 __________P___ -1 25.6133 128.567 4 3 343
1931231N19138 1931 30 WP MM NOT_NAMED 1931-08-23 21:00:00 NR 25.7546 128.517 main 618 618 __________P___ -1 25.7546 128.517 4 3 344
1931231N19138 1931 30 WP MM NOT_NAMED 1931-08-23 22:00:00 NR 25.8000 128.500 main 618 608 __________O___ -1 25.8000 128.500 4 3 340
1931231N19138 1931 30 WP MM NOT_NAMED 1931-08-24 00:00:00 NR 25.8890 128.472 main 608 598 __________P___ -1 25.8890 128.472 4 3 342
1931231N19138 1931 30 WP MM NOT_NAMED 1931-08-24 03:00:00 NR 26.0163 128.430 main 601 591 __________P___ -1 26.0163 128.430 4 3 342
1931231N19138 1931 30 WP MM NOT_NAMED 1931-08-24 06:00:00 NR 26.1387 128.382 main 591 574 __________P___ -1 26.1387 128.382 4 3 338
1931231N19138 1931 30 WP MM NOT_NAMED 1931-08-24 09:00:00 NR 26.2595 128.323 main 574 574 __________P___ -1 26.2595 128.323 4 3 336
1931231N19138 1931 30 WP MM NOT_NAMED 1931-08-24 10:00:00 NR 26.3000 128.300 main 574 564 __________O___ -1 26.3000 128.300 4 3 340
1931231N19138 1931 30 WP MM NOT_NAMED 1931-08-24 12:00:00 NR 26.3828 128.289 main 564 553 __________P___ -1 26.3828 128.289 4 3 352
1931231N19138 1931 30 WP MM NOT_NAMED 1931-08-24 15:00:00 NR 26.5071 128.261 main 553 548 __________P___ -1 26.5071 128.261 4 3 338
1931231N19138 1931 30 WP MM NOT_NAMED 1931-08-24 18:00:00 NR 26.6320 128.178 main 548 535 __________P___ -1 26.6320 128.178 4 3 316
1931231N19138 1931 30 WP MM NOT_NAMED 1931-08-24 21:00:00 NR 26.7578 127.993 main 535 535 __________P___ -1 26.7578 127.993 4 4 304
1931231N19138 1931 30 WP MM NOT_NAMED 1931-08-24 22:00:00 NR 26.8000 127.900 main 539 533 __________O___ -1 26.8000 127.900 4 7 293
1931231N19138 1931 30 WP MM NOT_NAMED 1931-08-25 00:00:00 NR 26.8895 127.637 main 542 541 __________P___ -1 26.8895 127.637 4 9 288
1931231N19138 1931 30 WP MM NOT_NAMED 1931-08-25 03:00:00 NR 27.0234 127.135 main 556 502 __________P___ -1 27.0234 127.135 4 10 285
1931231N19138 1931 30 WP MM NOT_NAMED 1931-08-25 06:00:00 NR 27.1508 126.561 main 502 445 __________P___ -1 27.1508 126.561 4 11 283
1931231N19138 1931 30 WP MM NOT_NAMED 1931-08-25 09:00:00 NR 27.2655 125.983 main 445 427 __________P___ -1 27.2655 125.983 4 10 282
1931231N19138 1931 30 WP MM NOT_NAMED 1931-08-25 10:00:00 NR 27.3000 125.800 main 427 395 __________O___ -1 27.3000 125.800 4 9 282
1931231N19138 1931 30 WP MM NOT_NAMED 1931-08-25 12:00:00 NR 27.3630 125.460 main 395 348 __________P___ -1 27.3630 125.460 4 9 282
1931231N19138 1931 30 WP MM NOT_NAMED 1931-08-25 15:00:00 NR 27.4447 125.007 main 348 307 __________P___ -1 27.4447 125.007 4 8 281
1931231N19138 1931 30 WP MM NOT_NAMED 1931-08-25 18:00:00 NR 27.5153 124.601 main 307 266 __________P___ -1 27.5153 124.601 4 7 281
1931231N19138 1931 30 WP MM NOT_NAMED 1931-08-25 21:00:00 NR 27.5794 124.223 main 266 257 __________P___ -1 27.5794 124.223 4 7 281
1931231N19138 1931 30 WP MM NOT_NAMED 1931-08-25 22:00:00 NR 27.6000 124.100 main 257 __________O___ -1 27.6000 124.100 4 7 281

Digital Typhoon Data and Search

About IBTrACS Database

This database is a web-friendly format of International Best Track Archive for Climate Stewardship (IBTrACS), a global best track data archive curated by NOAA dating back to 1842.

Updated: 2021-11-26